Time;durP1;ratioP1;P1;durP2;ratioP2;P2;SDS_P1;SDS_P2;PMS_P1;PMS_P2;Temp;Humidity;BMP_temperature;BMP_pressure;BME280_temperature;BME280_humidity;BME280_pressure;Samples;Min_cycle;Max_cycle;Signal;HPM_P1;HPM_P2
2023/10/03 00:00:31;;;;;;;26.90;14.20;;;;;;;18.19;58.37;95792.50;6184720;23;20525;-84
2023/10/03 00:03:00;;;;;;;27.63;14.90;;;;;;;18.19;58.53;95789.84;6183892;23;20241;-85
2023/10/03 00:05:31;;;;;;;28.58;15.98;;;;;;;18.13;58.59;95791.44;6159222;23;20518;-84
2023/10/03 00:07:58;;;;;;;26.40;14.57;;;;;;;18.18;58.24;95786.41;6184679;23;20477;-88
2023/10/03 00:10:25;;;;;;;27.90;15.77;;;;;;;18.09;58.40;95783.09;6208755;23;20151;-85
2023/10/03 00:12:51;;;;;;;24.40;13.30;;;;;;;18.09;58.36;95785.72;6183639;23;20393;-84
2023/10/03 00:15:18;;;;;;;25.80;14.07;;;;;;;18.19;57.92;95777.53;6209117;23;20181;-84
2023/10/03 00:17:44;;;;;;;23.98;14.00;;;;;;;18.37;57.09;95777.88;6184296;23;20213;-84
2023/10/03 00:20:12;;;;;;;24.42;13.63;;;;;;;18.46;56.58;95785.63;6211205;23;20578;-85
2023/10/03 00:22:38;;;;;;;22.92;12.75;;;;;;;18.55;56.43;95781.84;6187924;23;20154;-85
2023/10/03 00:25:07;;;;;;;25.40;13.52;;;;;;;18.57;56.47;95770.16;6185696;23;20174;-84
2023/10/03 00:27:35;;;;;;;23.92;12.80;;;;;;;18.58;56.05;95771.78;6185529;23;20611;-84
2023/10/03 00:30:00;;;;;;;23.65;13.45;;;;;;;18.57;55.71;95777.25;6161484;23;20166;-84
2023/10/03 00:32:26;;;;;;;23.25;13.32;;;;;;;18.56;55.90;95771.19;6185775;23;20158;-83
2023/10/03 00:34:51;;;;;;;25.48;14.13;;;;;;;18.56;55.68;95775.63;6210099;23;20190;-86
2023/10/03 00:37:16;;;;;;;23.02;12.88;;;;;;;18.52;56.28;95774.38;6211404;23;20170;-85
2023/10/03 00:39:43;;;;;;;25.38;14.00;;;;;;;18.53;56.45;95768.91;6210667;23;20154;-85
2023/10/03 00:42:10;;;;;;;26.33;13.50;;;;;;;18.44;56.11;95772.69;6186218;23;20213;-85
2023/10/03 00:44:37;;;;;;;23.33;13.63;;;;;;;18.43;56.89;95767.63;6210200;23;20197;-84
2023/10/03 00:47:06;;;;;;;24.48;13.98;;;;;;;18.40;56.60;95758.31;6187486;23;20158;-84
2023/10/03 00:49:31;;;;;;;26.08;14.10;;;;;;;18.29;57.02;95757.00;6210160;23;20585;-84
2023/10/03 00:51:57;;;;;;;27.80;14.02;;;;;;;18.28;57.27;95751.94;6185753;23;20158;-84
2023/10/03 00:54:22;;;;;;;29.30;15.23;;;;;;;18.23;57.57;95749.06;6184744;23;20210;-84
2023/10/03 00:56:49;;;;;;;27.98;15.10;;;;;;;18.16;57.71;95746.38;6186000;23;20159;-85
2023/10/03 00:59:14;;;;;;;26.20;14.20;;;;;;;18.10;58.14;95739.25;6210553;23;20181;-84
2023/10/03 01:01:41;;;;;;;28.67;15.48;;;;;;;18.04;58.42;95742.66;6210575;23;20163;-84
2023/10/03 01:04:11;;;;;;;24.83;14.13;;;;;;;17.99;58.41;95737.94;6185283;23;20173;-86
2023/10/03 01:06:36;;;;;;;30.13;14.73;;;;;;;17.95;58.46;95730.66;6209495;23;20175;-86
2023/10/03 01:09:03;;;;;;;27.00;14.70;;;;;;;17.89;58.36;95741.91;6160845;23;20155;-84
2023/10/03 01:11:29;;;;;;;26.40;14.65;;;;;;;17.86;58.50;95735.22;6160682;23;20159;-85
2023/10/03 01:13:59;;;;;;;27.17;14.93;;;;;;;17.84;58.58;95739.81;6209653;23;20193;-84
2023/10/03 01:16:36;;;;;;;26.52;15.13;;;;;;;17.78;58.77;95730.91;6161576;23;20181;-85
2023/10/03 01:19:20;;;;;;;24.20;13.68;;;;;;;17.78;58.48;95727.47;6208636;23;20135;-85
2023/10/03 01:21:50;;;;;;;27.65;14.35;;;;;;;17.72;58.79;95729.00;6185573;23;20165;-85
2023/10/03 01:24:20;;;;;;;25.10;12.98;;;;;;;17.66;59.32;95721.84;6209840;23;20170;-85
2023/10/03 01:26:49;;;;;;;26.10;13.23;;;;;;;17.71;59.20;95724.75;6185409;23;20190;-85
2023/10/03 01:29:15;;;;;;;27.13;14.77;;;;;;;17.65;59.02;95719.41;6185233;23;20154;-84
2023/10/03 01:31:41;;;;;;;28.75;14.98;;;;;;;17.56;59.68;95716.09;6185429;23;20554;-85
2023/10/03 01:34:06;;;;;;;32.42;16.25;;;;;;;17.65;59.87;95712.34;6184350;23;20221;-84
2023/10/03 01:36:32;;;;;;;27.83;14.75;;;;;;;17.62;60.14;95710.09;6209635;23;20190;-84
2023/10/03 01:38:57;;;;;;;29.25;15.75;;;;;;;17.57;60.21;95712.44;6160166;23;20154;-84
2023/10/03 01:41:22;;;;;;;29.67;15.63;;;;;;;17.38;61.00;95710.44;6185693;23;20170;-85
2023/10/03 01:43:48;;;;;;;29.30;15.93;;;;;;;17.36;61.03;95712.44;6184898;23;20166;-83
2023/10/03 01:46:13;;;;;;;30.77;15.55;;;;;;;17.26;61.54;95700.44;6210688;23;20171;-84
2023/10/03 01:48:39;;;;;;;30.73;15.13;;;;;;;17.22;61.32;95700.97;6185203;23;20568;-84
2023/10/03 01:51:05;;;;;;;27.70;16.50;;;;;;;17.13;62.10;95695.03;6185519;23;20162;-83
2023/10/03 01:53:30;;;;;;;32.50;16.20;;;;;;;17.02;62.27;95687.63;6159335;23;20194;-83
2023/10/03 01:55:59;;;;;;;28.38;15.43;;;;;;;16.99;62.61;95688.81;6185516;23;20178;-83
2023/10/03 01:58:25;;;;;;;28.23;14.98;;;;;;;17.01;62.72;95686.00;6209963;23;20161;-84
2023/10/03 02:00:50;;;;;;;28.40;14.75;;;;;;;16.93;62.95;95680.88;6187096;23;20151;-84
2023/10/03 02:03:18;;;;;;;28.83;14.38;;;;;;;16.90;62.56;95684.69;6185107;23;20254;-84
2023/10/03 02:05:43;;;;;;;26.70;14.23;;;;;;;16.82;62.65;95670.84;6185224;23;20205;-85
2023/10/03 02:08:20;;;;;;;24.27;14.02;;;;;;;16.82;62.46;95668.22;6185431;23;20610;-85
2023/10/03 02:10:48;;;;;;;24.63;13.20;;;;;;;16.85;62.28;95665.22;6185288;23;20147;-85
2023/10/03 02:13:17;;;;;;;23.10;12.80;;;;;;;16.81;62.14;95671.84;6184220;23;20198;-84
2023/10/03 02:15:44;;;;;;;27.15;13.85;;;;;;;16.81;62.54;95672.66;6209393;23;20177;-84
2023/10/03 02:18:10;;;;;;;26.08;13.32;;;;;;;16.80;62.25;95663.16;6184298;23;20161;-85
2023/10/03 02:20:53;;;;;;;23.75;12.88;;;;;;;16.85;61.76;95659.97;6160477;23;20505;-84
2023/10/03 02:23:23;;;;;;;21.52;12.45;;;;;;;16.80;61.89;95657.13;6209313;23;20163;-83
2023/10/03 02:25:54;;;;;;;25.35;13.48;;;;;;;16.74;61.77;95657.84;6209770;23;20228;-84
2023/10/03 02:28:20;;;;;;;24.70;12.85;;;;;;;16.73;61.85;95656.22;6209780;23;20143;-86
2023/10/03 02:30:50;;;;;;;24.30;12.93;;;;;;;16.67;62.16;95650.66;6184909;23;20193;-84
2023/10/03 02:33:17;;;;;;;21.80;12.25;;;;;;;16.65;62.10;95641.34;6160739;23;20179;-86
2023/10/03 02:35:44;;;;;;;21.63;11.85;;;;;;;16.67;62.49;95631.50;6210503;23;20175;-84
2023/10/03 02:38:14;;;;;;;21.48;12.13;;;;;;;16.67;61.68;95634.13;6210786;23;20149;-84
2023/10/03 02:40:40;;;;;;;22.48;11.70;;;;;;;16.75;61.37;95638.47;6210082;23;20591;-85
2023/10/03 02:43:06;;;;;;;20.17;11.65;;;;;;;16.79;61.19;95629.25;6210428;23;20147;-84
2023/10/03 02:45:31;;;;;;;21.35;11.13;;;;;;;16.88;60.65;95621.09;6211067;23;20266;-85
2023/10/03 02:47:58;;;;;;;20.05;11.40;;;;;;;16.94;60.45;95627.41;6210952;23;20162;-84
2023/10/03 02:50:24;;;;;;;18.75;11.05;;;;;;;16.99;60.07;95627.66;6187375;23;20614;-85
2023/10/03 02:52:51;;;;;;;20.60;11.55;;;;;;;17.06;59.53;95627.75;6185096;23;20161;-86
2023/10/03 02:55:17;;;;;;;21.67;9.80;;;;;;;17.13;58.92;95632.03;6186165;23;20186;-85
2023/10/03 02:57:44;;;;;;;18.13;10.07;;;;;;;17.24;58.36;95628.94;6161467;23;20698;-84
2023/10/03 03:00:13;;;;;;;18.52;9.90;;;;;;;17.30;58.18;95637.06;6185438;23;20273;-85
2023/10/03 03:02:48;;;;;;;15.93;9.23;;;;;;;17.40;57.53;95642.81;6185788;23;20154;-83
2023/10/03 03:05:18;;;;;;;16.58;9.35;;;;;;;17.40;57.09;95637.56;6185446;23;20578;-85
2023/10/03 03:07:48;;;;;;;17.88;9.13;;;;;;;17.44;57.27;95634.38;6184751;23;20237;-85
2023/10/03 03:10:14;;;;;;;12.63;7.82;;;;;;;17.51;56.23;95644.97;6210306;23;20162;-84
2023/10/03 03:12:43;;;;;;;16.02;8.77;;;;;;;17.60;55.91;95641.19;6184092;23;20159;-85
2023/10/03 03:15:17;;;;;;;11.35;7.10;;;;;;;17.69;55.32;95647.94;6184866;23;20183;-84
2023/10/03 03:17:43;;;;;;;11.93;7.25;;;;;;;17.78;54.15;95649.47;6209094;23;20213;-84
2023/10/03 03:20:19;;;;;;;10.07;7.13;;;;;;;17.97;53.61;95649.81;6159407;23;20162;-84
2023/10/03 03:22:48;;;;;;;11.63;6.85;;;;;;;18.18;53.17;95655.00;6208031;23;20189;-86
2023/10/03 03:25:21;;;;;;;10.90;6.95;;;;;;;18.34;52.12;95652.09;6159795;23;20499;-84
2023/10/03 03:27:47;;;;;;;12.98;7.03;;;;;;;18.45;51.99;95649.91;6184784;23;20151;-85
2023/10/03 03:32:53;;;;;;;12.10;7.00;;;;;;;18.49;51.64;95649.34;6206741;23;20494;-84
2023/10/03 03:35:24;;;;;;;11.95;6.55;;;;;;;18.49;51.44;95651.16;6209027;23;20174;-84
2023/10/03 03:37:55;;;;;;;11.25;6.68;;;;;;;18.45;51.98;95647.28;6208268;23;20174;-84
2023/10/03 03:40:29;;;;;;;10.18;6.30;;;;;;;18.54;51.10;95636.41;6160823;23;20149;-84
2023/10/03 03:42:58;;;;;;;12.30;6.72;;;;;;;18.66;50.87;95639.34;6161067;23;20491;-85
2023/10/03 03:45:26;;;;;;;10.02;5.90;;;;;;;18.77;50.12;95630.91;6160122;23;20209;-83
2023/10/03 03:47:51;;;;;;;10.45;6.45;;;;;;;18.94;49.71;95624.28;6209406;23;20154;-84
2023/10/03 03:50:17;;;;;;;13.75;6.82;;;;;;;19.07;49.24;95635.84;6159955;23;20273;-86
2023/10/03 03:52:45;;;;;;;9.70;6.10;;;;;;;19.23;49.29;95635.50;6183841;23;20154;-84
2023/10/03 03:55:11;;;;;;;9.05;5.93;;;;;;;19.29;48.77;95631.25;6184235;23;20385;-84
2023/10/03 03:57:37;;;;;;;10.30;6.47;;;;;;;19.40;48.55;95626.22;6159593;23;20162;-87
2023/10/03 04:00:12;;;;;;;13.15;6.43;;;;;;;19.48;47.69;95622.59;6159597;23;20165;-84
2023/10/03 04:02:38;;;;;;;13.52;6.78;;;;;;;19.55;47.94;95630.50;6160436;23;20181;-85
2023/10/03 04:05:07;;;;;;;9.70;6.20;;;;;;;19.70;47.18;95631.13;6159106;23;20171;-83
2023/10/03 04:07:38;;;;;;;8.25;5.72;;;;;;;19.80;47.15;95623.66;6184028;23;20189;-85
2023/10/03 04:10:07;;;;;;;10.15;5.55;;;;;;;19.90;46.74;95631.16;6184604;23;20142;-86
2023/10/03 04:12:38;;;;;;;8.95;6.35;;;;;;;19.84;47.15;95622.22;6183913;23;20166;-87
2023/10/03 04:15:05;;;;;;;7.97;5.60;;;;;;;19.89;46.84;95619.78;6160467;23;20182;-84
2023/10/03 04:17:33;;;;;;;9.98;6.05;;;;;;;19.93;46.73;95628.91;6184658;23;20154;-85
2023/10/03 04:19:58;;;;;;;9.38;5.68;;;;;;;19.87;47.16;95624.44;6160321;23;20154;-84
2023/10/03 04:22:23;;;;;;;8.32;5.70;;;;;;;19.88;47.05;95628.72;6158757;23;20159;-85
2023/10/03 04:24:49;;;;;;;8.10;5.88;;;;;;;19.86;47.03;95620.19;6159131;23;20178;-85
2023/10/03 04:27:15;;;;;;;8.52;5.55;;;;;;;19.95;46.70;95620.78;6159215;23;20156;-84
2023/10/03 04:29:41;;;;;;;8.85;5.53;;;;;;;20.01;46.44;95612.88;6159226;23;20652;-85
2023/10/03 04:32:07;;;;;;;10.32;6.10;;;;;;;20.06;46.59;95621.00;6183926;23;20167;-85
2023/10/03 04:34:33;;;;;;;8.48;5.80;;;;;;;20.22;45.97;95614.47;6159432;23;20186;-85
2023/10/03 04:36:59;;;;;;;10.80;5.97;;;;;;;20.18;46.31;95618.53;6159616;23;20551;-85
2023/10/03 04:39:24;;;;;;;12.05;6.10;;;;;;;20.21;46.42;95622.59;6184188;23;20166;-84
2023/10/03 04:41:49;;;;;;;9.77;6.15;;;;;;;20.21;46.41;95622.59;6159295;23;20151;-84
2023/10/03 04:44:15;;;;;;;9.20;6.07;;;;;;;20.28;46.60;95604.94;6183805;23;20174;-85
2023/10/03 04:46:41;;;;;;;10.27;5.88;;;;;;;20.27;46.76;95624.41;6159219;23;20225;-85
2023/10/03 04:49:07;;;;;;;12.68;6.38;;;;;;;20.12;46.83;95614.09;6159911;23;20166;-85
2023/10/03 04:51:32;;;;;;;8.65;5.88;;;;;;;20.08;46.98;95615.53;6159408;23;20167;-85
2023/10/03 04:53:58;;;;;;;9.27;5.60;;;;;;;20.45;46.40;95607.97;6158773;23;20218;-86
2023/10/03 04:56:23;;;;;;;10.30;5.35;;;;;;;20.61;45.95;95610.97;6159779;23;20175;-85
2023/10/03 04:58:48;;;;;;;8.82;5.38;;;;;;;20.57;46.24;95616.84;6159322;23;20194;-85
2023/10/03 05:01:14;;;;;;;8.13;5.50;;;;;;;20.41;46.53;95623.38;6159273;23;20607;-86
2023/10/03 05:03:39;;;;;;;10.63;5.25;;;;;;;20.31;46.56;95615.88;6183455;23;20208;-85
2023/10/03 05:06:06;;;;;;;9.23;5.90;;;;;;;20.25;46.70;95613.25;6161474;23;20190;-85
2023/10/03 05:08:31;;;;;;;8.82;5.57;;;;;;;20.03;47.62;95624.03;6186345;23;20162;-86
2023/10/03 05:10:57;;;;;;;8.75;6.13;;;;;;;20.03;47.59;95621.38;6161231;23;20159;-85
2023/10/03 05:13:22;;;;;;;8.52;5.78;;;;;;;20.02;47.28;95622.41;6159661;23;20190;-87
2023/10/03 05:15:48;;;;;;;10.52;5.90;;;;;;;20.05;47.65;95613.28;6161186;23;20178;-86
2023/10/03 05:18:13;;;;;;;8.25;5.80;;;;;;;19.97;47.71;95622.22;6186062;23;20150;-85
2023/10/03 05:20:39;;;;;;;8.68;5.65;;;;;;;20.08;47.83;95620.78;6161104;23;20158;-84
2023/10/03 05:23:05;;;;;;;9.27;5.82;;;;;;;20.00;48.08;95626.28;6185208;23;20146;-86
2023/10/03 05:25:36;;;;;;;8.98;5.55;;;;;;;20.05;47.60;95637.00;6160882;23;20518;-85
2023/10/03 05:28:01;;;;;;;9.88;5.88;;;;;;;20.06;47.58;95631.53;6162183;23;20151;-85
2023/10/03 05:30:29;;;;;;;9.93;6.20;;;;;;;20.09;47.67;95641.69;6185226;23;20685;-85
2023/10/03 05:32:54;;;;;;;10.80;6.60;;;;;;;19.93;47.68;95642.09;6160514;23;20234;-85
2023/10/03 05:35:21;;;;;;;10.57;6.80;;;;;;;19.97;48.24;95648.59;6160315;23;20190;-83
2023/10/03 05:37:47;;;;;;;8.57;5.68;;;;;;;19.94;47.97;95653.44;6161179;23;20175;-85
2023/10/03 05:40:12;;;;;;;9.35;6.05;;;;;;;20.02;47.85;95646.13;6160911;23;20177;-86
2023/10/03 05:42:40;;;;;;;10.32;6.63;;;;;;;20.07;47.35;95648.97;6160815;23;20185;-86
2023/10/03 05:45:06;;;;;;;10.50;6.57;;;;;;;20.09;47.55;95646.94;6185434;23;20245;-84
2023/10/03 05:47:32;;;;;;;8.38;6.10;;;;;;;19.89;47.80;95645.34;6184498;23;20158;-83
2023/10/03 05:49:57;;;;;;;9.30;6.22;;;;;;;19.98;48.15;95638.84;6185248;23;20162;-83
2023/10/03 05:52:22;;;;;;;8.93;5.80;;;;;;;19.97;48.18;95647.78;6160226;23;20185;-84
2023/10/03 05:54:48;;;;;;;8.82;5.97;;;;;;;19.98;48.55;95644.94;6160373;23;20202;-83
2023/10/03 05:57:13;;;;;;;8.15;5.80;;;;;;;20.06;48.12;95647.38;6158794;23;20163;-84
2023/10/03 05:59:39;;;;;;;8.82;5.95;;;;;;;20.06;48.15;95639.47;6185449;23;20150;-83
2023/10/03 06:02:04;;;;;;;11.23;6.05;;;;;;;20.21;47.81;95644.50;6161126;23;20681;-84
2023/10/03 06:04:33;;;;;;;11.13;6.28;;;;;;;20.04;48.16;95649.38;6183110;23;20186;-82
2023/10/03 06:06:59;;;;;;;10.98;6.65;;;;;;;20.12;48.06;95644.91;6158498;23;20542;-82
2023/10/03 06:09:24;;;;;;;12.30;6.60;;;;;;;20.24;47.74;95651.19;6157548;23;20225;-82
2023/10/03 06:11:49;;;;;;;10.57;6.68;;;;;;;20.24;48.11;95648.56;6182004;23;20566;-80
2023/10/03 06:14:15;;;;;;;10.75;6.13;;;;;;;20.30;48.09;95653.81;6182218;23;20621;-81
2023/10/03 06:16:41;;;;;;;9.68;6.38;;;;;;;20.33;48.11;95644.69;6156084;23;20182;-81
2023/10/03 06:19:07;;;;;;;10.68;6.78;;;;;;;20.59;47.66;95651.78;6182305;23;20158;-81
2023/10/03 06:21:33;;;;;;;10.23;6.60;;;;;;;20.65;47.64;95654.38;6182061;23;20159;-80
2023/10/03 06:23:58;;;;;;;10.85;6.35;;;;;;;20.69;47.33;95659.25;6156639;23;20169;-81
2023/10/03 06:26:24;;;;;;;10.30;6.25;;;;;;;20.83;47.37;95666.09;6183493;23;20491;-80
2023/10/03 06:28:50;;;;;;;11.82;6.25;;;;;;;21.13;47.06;95669.03;6182411;23;20494;-81
2023/10/03 06:31:17;;;;;;;9.77;6.70;;;;;;;21.19;46.74;95662.88;6157412;23;20375;-81
2023/10/03 06:33:45;;;;;;;8.80;6.47;;;;;;;21.21;46.84;95661.69;6156266;23;20638;-80
2023/10/03 06:36:12;;;;;;;11.25;6.70;;;;;;;21.33;46.94;95667.13;6157637;23;20285;-81
2023/10/03 06:38:38;;;;;;;7.68;5.97;;;;;;;21.49;46.71;95656.06;6181942;23;20139;-81
2023/10/03 06:41:04;;;;;;;8.95;5.90;;;;;;;21.70;46.38;95662.81;6206921;23;20150;-81
2023/10/03 06:43:30;;;;;;;10.60;6.13;;;;;;;21.76;46.55;95659.34;6181011;23;20212;-81
2023/10/03 06:45:55;;;;;;;8.80;5.90;;;;;;;21.92;46.28;95659.84;6181923;23;20205;-79
2023/10/03 06:48:24;;;;;;;8.90;5.78;;;;;;;21.93;46.39;95661.47;6182038;23;20155;-82
2023/10/03 06:50:50;;;;;;;10.68;5.90;;;;;;;22.02;46.26;95668.09;6181951;23;20150;-81
2023/10/03 06:53:18;;;;;;;9.48;6.07;;;;;;;22.25;46.45;95670.16;6180634;23;20193;-85
2023/10/03 06:55:51;;;;;;;14.70;6.38;;;;;;;22.35;45.99;95667.81;6159595;23;20178;-84
2023/10/03 07:02:04;;;;;;;10.73;6.10;;;;;;;22.52;47.27;95670.72;5985929;23;20162;-83
2023/10/03 07:04:30;;;;;;;9.75;6.18;;;;;;;22.46;47.25;95680.34;5984026;23;20328;-81
2023/10/03 07:06:55;;;;;;;9.38;5.75;;;;;;;22.68;46.96;95674.63;6007652;23;20163;-81
2023/10/03 07:09:20;;;;;;;10.35;5.90;;;;;;;22.75;47.23;95668.25;5983491;23;20210;-81
2023/10/03 07:11:49;;;;;;;7.63;5.65;;;;;;;22.73;47.93;95669.50;6006881;23;20518;-81
2023/10/03 07:14:15;;;;;;;11.85;6.45;;;;;;;22.85;47.84;95676.50;5981872;23;20190;-80
2023/10/03 07:16:44;;;;;;;9.98;5.95;;;;;;;22.88;48.47;95673.44;6000198;23;20595;-81
2023/10/03 07:19:10;;;;;;;8.88;5.72;;;;;;;22.95;48.66;95678.63;5978563;23;20171;-81
2023/10/03 07:21:36;;;;;;;9.13;5.63;;;;;;;23.00;48.65;95675.34;5978331;23;20163;-81
2023/10/03 07:24:02;;;;;;;9.50;6.22;;;;;;;23.31;48.34;95656.56;6001448;23;20206;-81
2023/10/03 07:26:27;;;;;;;10.27;6.43;;;;;;;23.21;48.60;95674.03;6001727;23;20205;-81
2023/10/03 07:28:57;;;;;;;9.75;5.97;;;;;;;23.47;48.02;95671.03;6002318;23;20686;-81
2023/10/03 07:31:23;;;;;;;9.75;6.15;;;;;;;23.56;48.22;95675.00;5957320;23;20167;-81
2023/10/03 07:33:48;;;;;;;9.73;5.60;;;;;;;23.36;48.46;95677.13;6059001;23;20224;-80
2023/10/03 07:36:17;;;;;;;11.98;6.28;;;;;;;23.32;48.29;95678.59;6057541;23;20196;-82
2023/10/03 07:38:42;;;;;;;13.55;5.47;;;;;;;23.41;48.24;95672.78;6096207;23;20158;-81
2023/10/03 07:41:09;;;;;;;7.47;5.57;;;;;;;23.29;48.56;95674.53;6178462;23;20321;-80
2023/10/03 07:43:34;;;;;;;7.65;5.47;;;;;;;23.42;48.51;95684.19;6177578;23;20158;-80
2023/10/03 07:46:00;;;;;;;10.38;6.35;;;;;;;23.55;48.14;95686.63;6179282;23;20175;-82
2023/10/03 07:48:25;;;;;;;9.73;5.88;;;;;;;23.56;48.10;95679.50;6155344;23;20166;-80
2023/10/03 07:50:51;;;;;;;9.52;5.47;;;;;;;23.52;47.49;95683.63;6179290;23;20160;-80
2023/10/03 07:53:17;;;;;;;10.13;6.05;;;;;;;23.62;47.86;95694.53;6177904;23;20182;-81
2023/10/03 07:55:42;;;;;;;9.77;5.70;;;;;;;23.62;48.14;95690.03;6154001;23;20178;-81
2023/10/03 07:58:13;;;;;;;10.85;5.88;;;;;;;23.25;48.40;95689.28;6179785;23;20175;-82
2023/10/03 08:00:39;;;;;;;9.38;6.43;;;;;;;23.45;47.94;95681.88;6156634;23;20143;-81
2023/10/03 08:03:08;;;;;;;10.68;5.68;;;;;;;23.56;48.06;95690.91;6178839;23;20174;-82
2023/10/03 08:05:34;;;;;;;9.63;6.03;;;;;;;23.13;48.91;95689.22;6155903;23;20329;-79
2023/10/03 08:08:02;;;;;;;10.30;6.28;;;;;;;23.34;48.22;95681.84;6178335;23;20241;-78
2023/10/03 08:10:29;;;;;;;7.57;5.72;;;;;;;23.66;47.52;95685.09;6155412;23;20186;-79
2023/10/03 08:12:55;;;;;;;11.43;5.90;;;;;;;23.48;47.86;95687.75;6155592;23;20198;-78
2023/10/03 08:15:21;;;;;;;8.38;6.05;;;;;;;23.34;47.93;95692.44;6180802;23;20793;-79
2023/10/03 08:17:49;;;;;;;9.63;6.40;;;;;;;23.54;47.13;95692.16;6182053;23;20159;-79
2023/10/03 08:20:15;;;;;;;9.82;6.00;;;;;;;23.48;47.31;95688.56;6181849;23;20212;-79
2023/10/03 08:22:41;;;;;;;7.18;5.38;;;;;;;23.35;47.63;95684.25;6206338;23;20166;-78
2023/10/03 08:25:09;;;;;;;10.40;6.18;;;;;;;23.47;47.18;95686.94;6181716;23;20174;-79
2023/10/03 08:27:34;;;;;;;7.03;5.88;;;;;;;23.49;47.16;95684.88;6207197;23;20155;-78
2023/10/03 08:30:01;;;;;;;12.15;6.72;;;;;;;23.39;47.38;95689.91;6182938;23;20578;-78
2023/10/03 08:32:26;;;;;;;10.02;6.65;;;;;;;23.53;47.12;95699.31;6181859;23;20229;-79
2023/10/03 08:34:52;;;;;;;9.20;5.88;;;;;;;23.28;47.24;95696.78;6181486;23;20186;-79
2023/10/03 08:37:23;;;;;;;8.38;5.53;;;;;;;23.35;47.27;95709.94;6158544;23;20224;-82
2023/10/03 08:39:49;;;;;;;8.43;5.45;;;;;;;23.51;46.72;95708.53;6159762;23;20468;-81
2023/10/03 08:42:34;;;;;;;9.38;5.50;;;;;;;23.61;46.45;95703.53;6184008;23;20155;-81
2023/10/03 08:45:16;;;;;;;8.75;6.32;;;;;;;23.62;46.38;95705.13;6184308;23;20186;-82
2023/10/03 08:47:47;;;;;;;8.52;6.00;;;;;;;23.45;46.61;95694.31;6183859;23;20155;-81
2023/10/03 08:50:29;;;;;;;10.02;5.55;;;;;;;23.83;46.33;95701.97;6160037;23;20190;-82
2023/10/03 08:52:56;;;;;;;12.70;6.07;;;;;;;23.80;46.10;95702.44;6204820;23;20135;-82
2023/10/03 08:55:22;;;;;;;9.68;6.15;;;;;;;23.85;45.82;95705.19;6158734;23;20183;-82
2023/10/03 08:57:48;;;;;;;10.70;5.97;;;;;;;23.85;45.30;95691.94;6158159;23;20174;-82
2023/10/03 09:00:15;;;;;;;11.60;5.85;;;;;;;23.79;45.88;95695.50;6158747;23;20232;-82
2023/10/03 09:02:47;;;;;;;7.25;5.72;;;;;;;23.77;46.10;95705.53;6182960;23;20182;-81
2023/10/03 09:05:20;;;;;;;10.48;6.10;;;;;;;23.73;45.83;95701.72;6182825;23;20277;-82
2023/10/03 09:07:46;;;;;;;8.85;5.40;;;;;;;24.06;45.85;95697.75;6158169;23;20645;-83
2023/10/03 09:10:22;;;;;;;8.00;5.72;;;;;;;23.88;45.63;95694.16;6158884;23;20166;-82
2023/10/03 09:12:51;;;;;;;7.97;5.53;;;;;;;24.12;45.32;95695.00;6182605;23;20242;-83
2023/10/03 09:15:17;;;;;;;7.80;5.85;;;;;;;24.10;45.18;95686.44;6182764;23;20520;-82
2023/10/03 09:17:44;;;;;;;8.73;5.35;;;;;;;23.90;45.11;95692.06;6158000;23;20173;-82
2023/10/03 09:20:13;;;;;;;10.52;5.80;;;;;;;24.30;45.22;95686.97;6209101;23;20162;-82
2023/10/03 09:22:40;;;;;;;10.07;6.60;;;;;;;24.12;45.54;95681.75;6182081;23;20676;-82
2023/10/03 09:25:07;;;;;;;8.65;5.72;;;;;;;24.18;45.07;95687.97;6159474;23;20174;-81
2023/10/03 09:27:32;;;;;;;11.57;6.03;;;;;;;24.07;45.60;95678.16;6209062;23;20248;-82
2023/10/03 09:29:59;;;;;;;8.35;6.97;;;;;;;24.18;45.14;95675.50;6184072;23;20591;-81
2023/10/03 09:32:24;;;;;;;10.95;6.00;;;;;;;24.44;45.27;95679.59;6182707;23;20159;-82
2023/10/03 09:34:56;;;;;;;11.38;5.78;;;;;;;24.29;45.63;95676.53;6180802;23;20248;-82
2023/10/03 09:37:28;;;;;;;7.38;5.20;;;;;;;24.74;44.71;95673.34;6182740;23;20174;-81
2023/10/03 09:39:57;;;;;;;10.30;6.30;;;;;;;24.62;44.44;95680.50;6184557;23;20139;-81
2023/10/03 09:42:24;;;;;;;9.38;5.97;;;;;;;24.87;44.35;95675.75;6158563;23;20500;-81
2023/10/03 09:44:50;;;;;;;9.88;5.80;;;;;;;24.86;44.54;95682.09;6181773;23;20182;-82
2023/10/03 09:47:19;;;;;;;8.15;5.93;;;;;;;24.92;44.67;95675.88;6158117;23;20155;-81
2023/10/03 09:49:45;;;;;;;7.63;5.50;;;;;;;25.11;44.57;95672.03;6207196;23;20157;-82
2023/10/03 09:52:26;;;;;;;11.35;6.40;;;;;;;24.64;45.03;95675.75;6207766;23;20488;-82
2023/10/03 09:54:59;;;;;;;7.32;5.80;;;;;;;24.79;44.80;95676.09;6203891;23;20209;-81
2023/10/03 09:57:28;;;;;;;8.25;5.47;;;;;;;24.50;45.36;95672.56;6182857;23;20243;-82
2023/10/03 09:59:54;;;;;;;9.68;6.25;;;;;;;24.46;45.35;95672.19;6207549;23;20155;-82
2023/10/03 10:02:30;;;;;;;6.47;5.32;;;;;;;24.65;45.24;95677.38;6207190;23;20245;-81
2023/10/03 10:04:59;;;;;;;8.60;5.93;;;;;;;24.58;45.46;95666.91;6182109;23;20181;-82
2023/10/03 10:07:34;;;;;;;10.73;6.20;;;;;;;24.74;45.05;95670.69;6182452;23;20158;-81
2023/10/03 10:10:14;;;;;;;8.82;5.65;;;;;;;24.24;45.88;95666.63;6207374;23;20645;-81
2023/10/03 10:13:13;;;;;;;9.48;6.25;;;;;;;24.65;44.89;95678.22;6181691;23;20472;-81
2023/10/03 10:16:01;;;;;;;8.75;6.13;;;;;;;24.98;44.82;95682.06;6182105;23;20186;-82
2023/10/03 10:18:45;;;;;;;6.90;6.05;;;;;;;25.32;44.51;95678.53;6182530;23;20692;-82
2023/10/03 10:21:25;;;;;;;9.15;5.78;;;;;;;25.24;45.22;95686.09;6182288;23;20162;-82
2023/10/03 10:24:15;;;;;;;10.73;5.95;;;;;;;25.45;44.14;95688.09;6183671;23;20158;-84
2023/10/03 10:26:52;;;;;;;9.30;5.60;;;;;;;25.45;43.76;95698.75;6183831;23;20186;-81
2023/10/03 10:29:24;;;;;;;9.82;5.97;;;;;;;25.51;43.79;95696.97;6182295;23;20240;-81
2023/10/03 10:31:57;;;;;;;7.63;6.40;;;;;;;25.69;43.31;95691.44;6182140;23;20648;-81
2023/10/03 10:35:01;;;;;;;10.05;8.75;;;;;;;25.65;43.62;95693.78;6183227;23;20186;-79
2023/10/03 10:37:18;;;;;;;9.68;6.35;;;;;;;25.96;43.48;95702.31;6178495;23;20200;-80
2023/10/03 10:42:59;;;;;;;7.90;5.72;;;;;;;26.08;42.47;95703.09;6182972;23;20170;-79
2023/10/03 10:45:37;;;;;;;7.82;5.68;;;;;;;25.79;42.06;95699.63;6180652;23;20250;-79
2023/10/03 10:48:03;;;;;;;11.52;10.32;;;;;;;26.03;42.04;95705.66;6156080;23;20185;-79
2023/10/03 10:51:04;;;;;;;6.03;5.13;;;;;;;25.92;41.30;95702.00;6180560;23;20158;-80
2023/10/03 10:53:43;;;;;;;9.93;6.40;;;;;;;25.81;41.41;95702.88;6179540;23;20202;-79
2023/10/03 10:56:10;;;;;;;6.20;5.15;;;;;;;25.74;41.12;95696.91;6205433;23;20611;-79
2023/10/03 10:58:53;;;;;;;8.45;5.22;;;;;;;25.87;41.03;95696.59;6205491;23;20186;-79
2023/10/03 11:01:21;;;;;;;11.43;5.88;;;;;;;25.88;41.44;95702.72;6181109;23;20174;-79
2023/10/03 11:03:49;;;;;;;8.15;5.55;;;;;;;25.72;41.40;95695.53;6181388;23;20162;-80
2023/10/03 11:06:18;;;;;;;8.30;5.38;;;;;;;25.99;41.04;95701.88;6183277;23;20182;-79
2023/10/03 11:08:47;;;;;;;7.95;6.03;;;;;;;25.74;41.62;95707.53;6182759;23;20162;-79
2023/10/03 11:11:13;;;;;;;8.13;5.93;;;;;;;25.59;42.03;95710.69;6156645;23;20586;-79
2023/10/03 11:13:51;;;;;;;10.95;5.97;;;;;;;25.34;42.31;95703.03;6180938;23;20193;-79
2023/10/03 11:16:21;;;;;;;8.65;5.40;;;;;;;25.27;42.38;95704.22;6183747;23;20261;-80
2023/10/03 11:18:47;;;;;;;10.85;6.38;;;;;;;25.60;42.26;95706.97;6156794;23;20184;-80
2023/10/03 11:21:12;;;;;;;7.45;5.55;;;;;;;25.62;41.73;95699.59;6181672;23;20632;-80
2023/10/03 11:23:38;;;;;;;6.82;5.72;;;;;;;25.75;41.95;95708.34;6155763;23;20151;-81
2023/10/03 11:26:05;;;;;;;8.48;6.07;;;;;;;25.86;42.55;95710.13;6156994;23;20179;-81
2023/10/03 11:28:45;;;;;;;7.82;6.05;;;;;;;25.89;42.00;95704.34;6157022;23;20154;-81
2023/10/03 11:31:13;;;;;;;10.60;5.72;;;;;;;25.97;41.25;95711.91;6157117;23;20238;-81
2023/10/03 11:33:42;;;;;;;10.40;6.65;;;;;;;26.01;41.79;95715.72;6180434;23;20216;-80
2023/10/03 11:36:07;;;;;;;8.10;5.90;;;;;;;25.96;42.01;95711.13;6180998;23;20538;-81
2023/10/03 11:38:53;;;;;;;10.30;6.10;;;;;;;25.70;41.68;95724.97;6181216;23;20159;-81
2023/10/03 11:41:29;;;;;;;7.13;5.75;;;;;;;26.12;41.40;95725.50;6157308;23;20162;-80